createdAt,value
2022-12-29T00:02:18.468Z,100333.16
2022-12-29T00:04:45.439Z,100328.72
2022-12-29T00:07:12.286Z,100314.25
2022-12-29T00:09:39.277Z,100321.41
2022-12-29T00:12:06.162Z,100316.81
2022-12-29T00:14:51.408Z,100316.78
2022-12-29T00:17:18.223Z,100319.66
2022-12-29T00:20:03.464Z,100325.00
2022-12-29T00:22:48.796Z,100309.88
2022-12-29T00:25:34.033Z,100306.97
2022-12-29T00:28:19.521Z,100308.50
2022-12-29T00:31:04.976Z,100306.59
2022-12-29T00:33:52.912Z,100307.13
2022-12-29T00:36:22.644Z,100296.06
2022-12-29T00:39:19.550Z,100284.53
2022-12-29T00:42:05.394Z,100285.69
2022-12-29T00:44:32.087Z,100305.88
2022-12-29T00:47:03.403Z,100297.88
2022-12-29T00:49:33.796Z,100280.91
2022-12-29T00:52:05.312Z,100277.56
2022-12-29T00:54:37.160Z,100286.94
2022-12-29T00:57:04.893Z,100284.03
2022-12-29T00:59:31.958Z,100276.09
2022-12-29T01:01:59.739Z,100290.09
2022-12-29T01:04:28.620Z,100277.75
2022-12-29T01:06:55.260Z,100275.50
2022-12-29T01:09:40.696Z,100287.22
2022-12-29T01:12:09.413Z,100282.13
2022-12-29T01:14:36.684Z,100278.78
2022-12-29T01:17:03.601Z,100276.75
2022-12-29T01:19:30.274Z,100279.47
2022-12-29T01:21:56.997Z,100279.81
2022-12-29T01:24:23.761Z,100277.63
2022-12-29T01:26:50.607Z,100275.38
2022-12-29T01:29:17.533Z,100281.47
2022-12-29T01:31:46.055Z,100273.72
2022-12-29T01:34:12.849Z,100271.16
2022-12-29T01:36:39.649Z,100281.09
2022-12-29T01:39:06.376Z,100266.88
2022-12-29T01:41:33.408Z,100285.56
2022-12-29T01:44:02.837Z,100297.00
2022-12-29T01:46:34.576Z,100267.53
2022-12-29T01:49:04.395Z,100269.16
2022-12-29T01:51:33.119Z,100267.13
2022-12-29T01:54:03.766Z,100257.03
2022-12-29T01:56:30.450Z,100259.16
2022-12-29T01:59:02.793Z,100253.63
2022-12-29T02:01:29.714Z,100244.78
2022-12-29T02:03:56.427Z,100253.22
2022-12-29T02:06:32.298Z,100250.09
2022-12-29T02:08:59.149Z,100233.88
2022-12-29T02:11:27.695Z,100236.44
2022-12-29T02:13:54.367Z,100241.84
2022-12-29T02:16:35.727Z,100237.94
2022-12-29T02:19:24.214Z,100236.53
2022-12-29T02:22:43.848Z,100241.94
2022-12-29T02:25:28.754Z,100231.00
2022-12-29T02:28:18.743Z,100226.03
2022-12-29T02:30:57.566Z,100237.06
2022-12-29T02:33:42.875Z,100230.41
2022-12-29T02:36:21.579Z,100225.53
2022-12-29T02:39:03.394Z,100222.28
2022-12-29T02:41:59.779Z,100230.75
2022-12-29T02:44:32.431Z,100235.81
2022-12-29T02:47:24.925Z,100225.41
2022-12-29T02:49:59.085Z,100229.88
2022-12-29T02:52:37.069Z,100208.38
2022-12-29T02:55:03.907Z,100222.81
2022-12-29T02:57:35.010Z,100227.03
2022-12-29T03:00:09.264Z,100213.97
2022-12-29T03:03:08.011Z,100204.88
2022-12-29T03:05:47.029Z,100189.59
2022-12-29T03:08:50.508Z,100200.66
2022-12-29T03:11:36.443Z,100188.41
2022-12-29T03:14:22.293Z,100178.81
2022-12-29T03:16:53.700Z,100171.28
2022-12-29T03:19:30.011Z,100177.59
2022-12-29T03:22:17.025Z,100176.69
2022-12-29T03:24:52.049Z,100173.53
2022-12-29T03:27:22.412Z,100166.75
2022-12-29T03:29:56.886Z,100164.53
2022-12-29T03:32:27.634Z,100178.06
2022-12-29T03:34:54.939Z,100172.16
2022-12-29T03:37:25.916Z,100171.31
2022-12-29T03:39:53.219Z,100170.91
2022-12-29T03:42:25.112Z,100170.41
2022-12-29T03:44:54.993Z,100173.22
2022-12-29T03:47:22.029Z,100177.44
2022-12-29T03:49:49.079Z,100186.78
2022-12-29T03:52:16.568Z,100179.69
2022-12-29T03:54:45.294Z,100178.03
2022-12-29T03:57:13.051Z,100185.66
2022-12-29T03:59:53.747Z,100185.97
2022-12-29T04:02:20.579Z,100169.56
2022-12-29T04:04:47.551Z,100175.09
2022-12-29T04:07:14.235Z,100168.97
2022-12-29T04:09:42.331Z,100163.72
2022-12-29T04:12:12.213Z,100165.84
2022-12-29T04:14:38.855Z,100161.78
2022-12-29T04:17:05.488Z,100179.75
2022-12-29T04:19:33.349Z,100170.78
2022-12-29T04:22:01.423Z,100188.84
2022-12-29T04:24:28.526Z,100166.78
2022-12-29T04:26:55.425Z,100166.47
2022-12-29T04:29:41.886Z,100161.16
2022-12-29T04:32:18.443Z,100162.22
2022-12-29T04:34:49.284Z,100158.16
2022-12-29T04:37:16.248Z,100159.22
2022-12-29T04:39:42.876Z,100157.22
2022-12-29T04:42:09.736Z,100154.28
2022-12-29T04:44:39.899Z,100165.41
2022-12-29T04:47:15.040Z,100148.75
2022-12-29T04:49:55.685Z,100144.25
2022-12-29T04:52:42.630Z,100145.09
2022-12-29T04:55:11.192Z,100147.47
2022-12-29T04:57:38.029Z,100144.34
2022-12-29T05:00:05.622Z,100145.97
2022-12-29T05:02:32.462Z,100154.59
2022-12-29T05:04:59.286Z,100144.88
2022-12-29T05:07:26.909Z,100147.41
2022-12-29T05:09:54.762Z,100140.16
2022-12-29T05:12:21.464Z,100139.06
2022-12-29T05:14:58.834Z,100128.28
2022-12-29T05:17:25.621Z,100123.09
2022-12-29T05:19:52.959Z,100127.69
2022-12-29T05:22:20.086Z,100129.91
2022-12-29T05:24:47.191Z,100107.59
2022-12-29T05:27:14.525Z,100113.97
2022-12-29T05:30:06.750Z,100104.97
2022-12-29T05:32:34.522Z,100109.97
2022-12-29T05:35:01.226Z,100106.34
2022-12-29T05:37:28.714Z,100107.09
2022-12-29T05:39:55.452Z,100106.81
2022-12-29T05:42:22.194Z,100108.59
2022-12-29T05:44:54.991Z,100109.94
2022-12-29T05:47:32.614Z,100110.81
2022-12-29T05:50:10.777Z,100105.28
2022-12-29T05:52:55.735Z,100099.22
2022-12-29T05:55:22.906Z,100099.16
2022-12-29T05:57:52.559Z,100089.06
2022-12-29T06:00:19.350Z,100087.81
2022-12-29T06:02:47.298Z,100085.47
2022-12-29T06:05:15.810Z,100093.81
2022-12-29T06:07:42.505Z,100097.13
2022-12-29T06:10:09.312Z,100093.47
2022-12-29T06:12:56.234Z,100104.22
2022-12-29T06:15:23.176Z,100096.59
2022-12-29T06:17:50.887Z,100098.31
2022-12-29T06:20:18.245Z,100088.94
2022-12-29T06:22:44.943Z,100110.34
2022-12-29T06:25:11.730Z,100094.50
2022-12-29T06:27:39.497Z,100099.25
2022-12-29T06:30:06.648Z,100094.50
2022-12-29T06:32:33.307Z,100096.75
2022-12-29T06:35:07.067Z,100085.91
2022-12-29T06:37:37.653Z,100101.50
2022-12-29T06:40:04.670Z,100091.19
2022-12-29T06:42:43.413Z,100099.03
2022-12-29T06:45:30.373Z,100107.53
2022-12-29T06:47:57.254Z,100099.69
2022-12-29T06:50:23.898Z,100105.69
2022-12-29T06:52:50.540Z,100120.81
2022-12-29T06:55:17.506Z,100123.63
2022-12-29T06:57:44.129Z,100126.44
2022-12-29T07:00:11.163Z,100122.31
2022-12-29T07:02:37.861Z,100122.19
2022-12-29T07:05:04.727Z,100118.00
2022-12-29T07:07:31.374Z,100115.31
2022-12-29T07:09:58.019Z,100123.03
2022-12-29T07:12:24.646Z,100129.16
2022-12-29T07:14:51.330Z,100134.06
2022-12-29T07:17:17.947Z,100125.34
2022-12-29T07:19:45.559Z,100135.88
2022-12-29T07:22:12.309Z,100127.97
2022-12-29T07:24:38.928Z,100138.00
2022-12-29T07:27:05.694Z,100124.19
2022-12-29T07:29:35.583Z,100131.00
2022-12-29T07:32:02.318Z,100123.09
2022-12-29T07:34:29.043Z,100126.63
2022-12-29T07:36:55.677Z,100127.41
2022-12-29T07:39:22.297Z,100125.53
2022-12-29T07:41:48.915Z,100123.69
2022-12-29T07:44:20.223Z,100115.28
2022-12-29T07:47:00.393Z,100122.00
2022-12-29T07:49:27.410Z,100129.22
2022-12-29T07:51:54.077Z,100115.16
2022-12-29T07:54:20.963Z,100122.91
2022-12-29T07:56:47.632Z,100124.06
2022-12-29T07:59:14.485Z,100115.38
2022-12-29T08:01:41.356Z,100112.38
2022-12-29T08:04:08.288Z,100126.56
2022-12-29T08:06:35.055Z,100117.53
2022-12-29T08:09:09.876Z,100111.72
2022-12-29T08:11:41.407Z,100105.97
2022-12-29T08:14:08.366Z,100109.41
2022-12-29T08:16:35.453Z,100112.94
2022-12-29T08:19:02.410Z,100121.22
2022-12-29T08:21:29.609Z,100120.94
2022-12-29T08:23:56.729Z,100119.28
2022-12-29T08:26:23.366Z,100127.69
2022-12-29T08:28:53.602Z,100122.75
2022-12-29T08:31:20.332Z,100114.53
2022-12-29T08:33:47.034Z,100114.53
2022-12-29T08:36:13.617Z,100105.97
2022-12-29T08:38:43.239Z,100117.94
2022-12-29T08:41:09.910Z,100108.28
2022-12-29T08:43:36.557Z,100118.09
2022-12-29T08:46:03.320Z,100120.38
2022-12-29T08:48:30.119Z,100125.06
2022-12-29T08:50:56.794Z,100115.25
2022-12-29T08:53:23.501Z,100112.94
2022-12-29T08:56:03.705Z,100120.09
2022-12-29T08:58:33.332Z,100114.84
2022-12-29T09:01:00.473Z,100103.66
2022-12-29T09:06:15.829Z,100106.66
2022-12-29T09:08:42.659Z,100093.00
2022-12-29T09:11:21.467Z,100097.13
2022-12-29T09:13:48.507Z,100100.66
2022-12-29T09:16:15.627Z,100098.84
2022-12-29T09:18:43.088Z,100101.94
2022-12-29T09:21:11.043Z,100094.41
2022-12-29T09:23:38.175Z,100093.97
2022-12-29T09:26:05.105Z,100097.06
2022-12-29T09:28:32.194Z,100087.50
2022-12-29T09:31:00.003Z,100075.22
2022-12-29T09:33:27.021Z,100085.47
2022-12-29T09:35:55.853Z,100081.69
2022-12-29T09:38:22.840Z,100082.16
2022-12-29T09:40:56.943Z,100077.59
2022-12-29T09:43:42.354Z,100070.69
2022-12-29T09:46:18.644Z,100063.84
2022-12-29T09:48:49.185Z,100062.81
2022-12-29T09:51:18.471Z,100063.38
2022-12-29T09:54:05.046Z,100063.56
2022-12-29T09:56:32.089Z,100069.59
2022-12-29T09:59:21.567Z,100075.41
2022-12-29T10:02:27.557Z,100082.09
2022-12-29T10:04:54.290Z,100080.19
2022-12-29T10:07:42.955Z,100072.28
2022-12-29T10:10:34.650Z,100084.22
2022-12-29T10:13:14.595Z,100088.13
2022-12-29T10:15:56.410Z,100079.31
2022-12-29T10:19:02.562Z,100062.66
2022-12-29T10:21:50.844Z,100073.63
2022-12-29T10:24:22.717Z,100073.91
2022-12-29T10:26:52.330Z,100067.84
2022-12-29T10:29:26.068Z,100077.41
2022-12-29T10:32:00.286Z,100063.81
2022-12-29T10:34:30.710Z,100071.84
2022-12-29T10:37:15.507Z,100069.88
2022-12-29T10:39:47.333Z,100066.59
2022-12-29T10:42:19.330Z,100074.03
2022-12-29T10:44:46.079Z,100061.84
2022-12-29T10:47:18.897Z,100063.00
2022-12-29T10:49:49.754Z,100069.81
2022-12-29T10:52:18.796Z,100077.84
2022-12-29T10:55:04.769Z,100071.66
2022-12-29T10:57:41.085Z,100083.81
2022-12-29T11:00:16.328Z,100067.84
2022-12-29T11:03:17.026Z,100065.75
2022-12-29T11:05:53.352Z,100072.50
2022-12-29T11:08:26.478Z,100079.91
2022-12-29T11:11:03.130Z,100066.03
2022-12-29T11:13:38.308Z,100085.03
2022-12-29T11:16:05.665Z,100080.00
2022-12-29T11:18:37.127Z,100085.44
2022-12-29T11:21:07.724Z,100082.22
2022-12-29T11:23:38.770Z,100071.53
2022-12-29T11:26:11.282Z,100079.09
2022-12-29T11:28:39.470Z,100086.81
2022-12-29T11:31:08.128Z,100086.78
2022-12-29T11:33:40.000Z,100074.97
2022-12-29T11:36:16.646Z,100079.78
2022-12-29T11:38:47.230Z,100082.19
2022-12-29T11:41:21.140Z,100092.97
2022-12-29T11:43:48.895Z,100090.16
2022-12-29T11:46:22.290Z,100104.63
2022-12-29T11:48:49.775Z,100093.88
2022-12-29T11:51:39.207Z,100102.28
2022-12-29T11:54:06.576Z,100107.38
2022-12-29T11:56:44.063Z,100122.41
2022-12-29T11:59:53.220Z,100108.06
2022-12-29T12:02:43.719Z,100105.78
2022-12-29T12:05:19.777Z,100096.34
2022-12-29T12:07:49.061Z,100099.50
2022-12-29T12:10:23.734Z,100105.84
2022-12-29T12:13:00.238Z,100114.91
2022-12-29T12:15:33.034Z,100117.09
2022-12-29T12:18:37.386Z,100124.59
2022-12-29T12:21:13.986Z,100097.19
2022-12-29T12:24:16.408Z,100097.91
2022-12-29T12:26:59.899Z,100107.13
2022-12-29T12:29:38.354Z,100107.00
2022-12-29T12:32:19.861Z,100115.00
2022-12-29T12:34:47.545Z,100105.13
2022-12-29T12:37:14.179Z,100102.75
2022-12-29T12:40:06.463Z,100100.94
2022-12-29T12:42:50.237Z,100094.75
2022-12-29T12:45:33.024Z,100094.00
2022-12-29T12:48:25.496Z,100095.25
2022-12-29T12:51:02.219Z,100095.25
2022-12-29T12:53:53.702Z,100095.63
2022-12-29T12:56:40.330Z,100100.59
2022-12-29T12:59:16.221Z,100102.16
2022-12-29T13:01:58.548Z,100105.94
2022-12-29T13:04:38.047Z,100102.59
2022-12-29T13:07:29.770Z,100110.72
2022-12-29T13:10:34.100Z,100108.84
2022-12-29T13:13:37.117Z,100108.84
2022-12-29T13:16:14.916Z,100104.72
2022-12-29T13:18:49.765Z,100115.56
2022-12-29T13:21:28.902Z,100116.56
2022-12-29T13:24:26.336Z,100114.78
2022-12-29T13:26:59.569Z,100108.72
2022-12-29T13:29:54.488Z,100116.00
2022-12-29T13:32:30.191Z,100115.88
2022-12-29T13:35:17.879Z,100112.69
2022-12-29T13:37:52.423Z,100115.44
2022-12-29T13:40:24.085Z,100114.78
2022-12-29T13:42:52.049Z,100120.97
2022-12-29T13:45:22.372Z,100116.13
2022-12-29T13:47:55.746Z,100118.59
2022-12-29T13:50:25.643Z,100106.91
2022-12-29T13:53:03.782Z,100114.19
2022-12-29T13:55:38.780Z,100116.13
2022-12-29T13:58:43.015Z,100120.56
2022-12-29T14:01:15.579Z,100113.56
2022-12-29T14:03:44.746Z,100116.78
2022-12-29T14:06:26.706Z,100123.28
2022-12-29T14:08:56.272Z,100137.88
2022-12-29T14:11:28.238Z,100123.44
2022-12-29T14:13:55.401Z,100119.19
2022-12-29T14:16:28.407Z,100133.34
2022-12-29T14:18:58.287Z,100126.53
2022-12-29T14:21:30.805Z,100138.00
2022-12-29T14:24:27.280Z,100131.81
2022-12-29T14:26:53.883Z,100140.97
2022-12-29T14:29:26.700Z,100140.50
2022-12-29T14:31:54.074Z,100143.84
2022-12-29T14:34:21.601Z,100148.44
2022-12-29T14:37:01.449Z,100152.31
2022-12-29T14:39:39.127Z,100156.72
2022-12-29T14:42:11.787Z,100147.22
2022-12-29T14:44:50.686Z,100151.03
2022-12-29T14:47:23.978Z,100152.66
2022-12-29T14:49:50.714Z,100163.94
2022-12-29T14:52:24.187Z,100168.47
2022-12-29T14:54:54.964Z,100168.38
2022-12-29T14:57:26.286Z,100166.75
2022-12-29T15:00:09.152Z,100176.84
2022-12-29T15:02:41.732Z,100183.53
2022-12-29T15:05:26.321Z,100188.25
2022-12-29T15:07:59.832Z,100207.41
2022-12-29T15:10:27.487Z,100208.69
2022-12-29T15:13:05.668Z,100212.97
2022-12-29T15:15:37.695Z,100221.84
2022-12-29T15:18:40.395Z,100217.44
2022-12-29T15:21:07.731Z,100208.19
2022-12-29T15:23:36.105Z,100209.84
2022-12-29T15:26:08.058Z,100212.44
2022-12-29T15:28:46.572Z,100207.50
2022-12-29T15:31:28.029Z,100214.97
2022-12-29T15:34:04.420Z,100211.03
2022-12-29T15:36:39.109Z,100212.97
2022-12-29T15:39:31.808Z,100227.19
2022-12-29T15:42:33.622Z,100217.97
2022-12-29T15:45:10.208Z,100227.25
2022-12-29T15:47:39.803Z,100225.22
2022-12-29T15:50:21.981Z,100227.81
2022-12-29T15:52:48.904Z,100231.22
2022-12-29T15:55:28.627Z,100237.78
2022-12-29T15:58:00.196Z,100238.59
2022-12-29T16:00:32.953Z,100243.09
2022-12-29T16:03:02.432Z,100246.97
2022-12-29T16:05:34.726Z,100253.09
2022-12-29T16:08:02.560Z,100258.44
2022-12-29T16:10:37.198Z,100257.19
2022-12-29T16:13:07.590Z,100262.34
2022-12-29T16:15:34.333Z,100259.72
2022-12-29T16:18:07.238Z,100257.94
2022-12-29T16:20:41.301Z,100266.66
2022-12-29T16:23:19.352Z,100263.06
2022-12-29T16:25:46.182Z,100271.78
2022-12-29T16:28:23.905Z,100269.03
2022-12-29T16:31:05.348Z,100271.25
2022-12-29T16:33:41.278Z,100264.16
2022-12-29T16:36:28.171Z,100276.47
2022-12-29T16:39:24.566Z,100281.78
2022-12-29T16:41:51.557Z,100282.66
2022-12-29T16:44:32.002Z,100290.00
2022-12-29T16:47:10.939Z,100281.16
2022-12-29T16:49:48.717Z,100295.41
2022-12-29T16:52:20.683Z,100283.97
2022-12-29T16:54:54.264Z,100287.13
2022-12-29T16:57:29.946Z,100286.75
2022-12-29T17:00:00.815Z,100295.47
2022-12-29T17:02:30.246Z,100298.66
2022-12-29T17:04:56.980Z,100303.03
2022-12-29T17:07:25.605Z,100309.16
2022-12-29T17:09:54.353Z,100303.13
2022-12-29T17:12:27.323Z,100311.97
2022-12-29T17:14:57.786Z,100306.56
2022-12-29T17:17:35.699Z,100308.97
2022-12-29T17:20:17.570Z,100310.16
2022-12-29T17:22:44.848Z,100316.28
2022-12-29T17:25:19.603Z,100316.72
2022-12-29T17:27:49.273Z,100305.34
2022-12-29T17:30:18.033Z,100321.97
2022-12-29T17:32:58.733Z,100320.50
2022-12-29T17:35:25.786Z,100320.19
2022-12-29T17:37:53.206Z,100324.66
2022-12-29T17:40:29.585Z,100322.69
2022-12-29T17:42:57.515Z,100314.31
2022-12-29T17:45:29.075Z,100308.78
2022-12-29T17:47:56.413Z,100307.53
2022-12-29T17:50:26.751Z,100313.25
2022-12-29T17:53:00.732Z,100317.31
2022-12-29T17:55:32.992Z,100320.84
2022-12-29T17:58:16.025Z,100320.81
2022-12-29T18:00:43.875Z,100311.09
2022-12-29T18:03:24.403Z,100320.69
2022-12-29T18:05:51.176Z,100320.94
2022-12-29T18:08:17.869Z,100318.13
2022-12-29T18:10:44.690Z,100319.56
2022-12-29T18:13:29.358Z,100327.00
2022-12-29T18:16:05.738Z,100331.88
2022-12-29T18:18:32.503Z,100338.31
2022-12-29T18:21:00.306Z,100344.25
2022-12-29T18:23:32.603Z,100341.69
2022-12-29T18:26:00.872Z,100352.06
2022-12-29T18:28:28.504Z,100349.63
2022-12-29T18:30:57.407Z,100350.13
2022-12-29T18:33:26.656Z,100353.09
2022-12-29T18:36:02.336Z,100344.59
2022-12-29T18:38:29.979Z,100348.22
2022-12-29T18:40:57.222Z,100352.69
2022-12-29T18:43:23.926Z,100348.53
2022-12-29T18:45:50.888Z,100351.00
2022-12-29T18:48:18.668Z,100351.19
2022-12-29T18:50:46.695Z,100351.63
2022-12-29T18:53:22.321Z,100354.97
2022-12-29T18:55:51.188Z,100351.78
2022-12-29T18:58:18.145Z,100354.03
2022-12-29T19:00:45.052Z,100354.47
2022-12-29T19:03:17.154Z,100353.97
2022-12-29T19:05:45.384Z,100358.44
2022-12-29T19:08:12.369Z,100370.13
2022-12-29T19:10:39.995Z,100369.66
2022-12-29T19:13:06.759Z,100369.91
2022-12-29T19:15:40.521Z,100380.56
2022-12-29T19:20:56.868Z,100382.59
2022-12-29T19:23:25.681Z,100374.72
2022-12-29T19:25:54.345Z,100381.69
2022-12-29T19:28:26.391Z,100384.56
2022-12-29T19:30:57.426Z,100380.47
2022-12-29T19:33:24.441Z,100387.34
2022-12-29T19:35:51.758Z,100391.00
2022-12-29T19:38:19.489Z,100390.50
2022-12-29T19:40:48.920Z,100399.22
2022-12-29T19:43:15.572Z,100392.50
2022-12-29T19:45:43.721Z,100394.34
2022-12-29T19:48:19.528Z,100392.34
2022-12-29T19:50:46.550Z,100391.22
2022-12-29T19:53:13.596Z,100400.16
2022-12-29T19:55:44.653Z,100397.50
2022-12-29T19:58:12.247Z,100393.66
2022-12-29T20:00:40.390Z,100392.16
2022-12-29T20:03:07.146Z,100397.03
2022-12-29T20:05:34.027Z,100388.03
2022-12-29T20:08:00.668Z,100390.94
2022-12-29T20:10:27.382Z,100406.53
2022-12-29T20:12:54.110Z,100394.88
2022-12-29T20:15:20.788Z,100397.25
2022-12-29T20:18:16.286Z,100398.94
2022-12-29T20:20:34.879Z,100391.25
2022-12-29T20:23:01.626Z,100386.88
2022-12-29T20:25:46.754Z,100396.38
2022-12-29T20:28:15.690Z,100384.03
2022-12-29T20:30:42.560Z,100396.91
2022-12-29T20:33:09.338Z,100395.38
2022-12-29T20:35:36.601Z,100387.13
2022-12-29T20:38:03.975Z,100392.56
2022-12-29T20:40:30.758Z,100393.22
2022-12-29T20:42:57.429Z,100395.00
2022-12-29T20:45:24.490Z,100401.78
2022-12-29T20:47:51.232Z,100399.34
2022-12-29T20:50:18.015Z,100388.16
2022-12-29T20:52:44.852Z,100397.34
2022-12-29T20:55:11.650Z,100392.78
2022-12-29T20:58:22.131Z,100392.72
2022-12-29T21:00:25.871Z,100397.34
2022-12-29T21:02:53.186Z,100400.72
2022-12-29T21:05:24.348Z,100396.63
2022-12-29T21:07:52.738Z,100398.97
2022-12-29T21:10:19.598Z,100392.66
2022-12-29T21:12:46.482Z,100393.53
2022-12-29T21:15:15.129Z,100398.00
2022-12-29T21:17:43.709Z,100396.63
2022-12-29T21:20:20.045Z,100391.88
2022-12-29T21:22:50.745Z,100394.88
2022-12-29T21:25:17.599Z,100394.19
2022-12-29T21:27:44.399Z,100398.06
2022-12-29T21:30:12.114Z,100399.88
2022-12-29T21:32:39.591Z,100408.50
2022-12-29T21:35:07.450Z,100409.06
2022-12-29T21:37:34.492Z,100411.19
2022-12-29T21:40:01.160Z,100413.09
2022-12-29T21:42:27.963Z,100418.25
2022-12-29T21:45:19.841Z,100420.16
2022-12-29T21:48:06.114Z,100419.72
2022-12-29T21:50:32.842Z,100424.13
2022-12-29T21:52:59.560Z,100427.69
2022-12-29T21:55:26.212Z,100425.56
2022-12-29T21:58:22.082Z,100425.31
2022-12-29T22:01:09.076Z,100428.69
2022-12-29T22:03:57.209Z,100436.22
2022-12-29T22:06:42.389Z,100439.88
2022-12-29T22:09:30.364Z,100440.09
2022-12-29T22:12:15.665Z,100436.78
2022-12-29T22:14:42.283Z,100433.44
2022-12-29T22:17:14.007Z,100429.78
2022-12-29T22:19:41.022Z,100428.75
2022-12-29T22:22:07.714Z,100438.31
2022-12-29T22:24:34.340Z,100435.47
2022-12-29T22:27:01.064Z,100429.66
2022-12-29T22:29:27.885Z,100435.66
2022-12-29T22:31:54.590Z,100444.59
2022-12-29T22:34:21.230Z,100436.34
2022-12-29T22:36:47.991Z,100441.19
2022-12-29T22:39:14.763Z,100438.75
2022-12-29T22:41:41.395Z,100445.03
2022-12-29T22:44:08.149Z,100453.97
2022-12-29T22:46:34.979Z,100455.47
2022-12-29T22:49:01.697Z,100454.47
2022-12-29T22:51:28.371Z,100456.22
2022-12-29T22:53:55.081Z,100458.50
2022-12-29T22:56:22.043Z,100459.41
2022-12-29T22:58:51.710Z,100467.25
2022-12-29T23:01:22.542Z,100477.94
2022-12-29T23:03:52.863Z,100479.69
2022-12-29T23:06:19.559Z,100475.19
2022-12-29T23:08:47.500Z,100490.78
2022-12-29T23:11:14.615Z,100482.41
2022-12-29T23:13:41.825Z,100485.59
2022-12-29T23:16:09.632Z,100484.94
2022-12-29T23:18:37.144Z,100485.16
2022-12-29T23:21:04.236Z,100486.97
2022-12-29T23:23:50.101Z,100485.06
2022-12-29T23:26:17.876Z,100484.91
2022-12-29T23:28:44.670Z,100497.41
2022-12-29T23:31:11.388Z,100504.34
2022-12-29T23:33:38.228Z,100506.19
2022-12-29T23:36:05.471Z,100498.16
2022-12-29T23:38:32.112Z,100508.59
2022-12-29T23:40:58.768Z,100507.06
2022-12-29T23:43:25.384Z,100514.69
2022-12-29T23:45:52.147Z,100507.25
2022-12-29T23:48:19.490Z,100510.44
2022-12-29T23:50:46.224Z,100514.81
2022-12-29T23:53:13.196Z,100513.22
2022-12-29T23:55:44.145Z,100518.94
2022-12-29T23:58:11.397Z,100517.34
